sensor_id;sensor_type;location;lat;lon;timestamp;P1;durP1;ratioP1;P2;durP2;ratioP2
18206;SDS011;9229;52.354;20.886;2023-05-21T00:04:18;12.88;;;8.65;;
18206;SDS011;9229;52.354;20.886;2023-05-21T00:09:23;8.70;;;7.40;;
18206;SDS011;9229;52.354;20.886;2023-05-21T00:14:25;23.60;;;7.68;;
18206;SDS011;9229;52.354;20.886;2023-05-21T00:19:28;20.45;;;8.10;;
18206;SDS011;9229;52.354;20.886;2023-05-21T00:24:33;11.10;;;7.78;;
18206;SDS011;9229;52.354;20.886;2023-05-21T00:29:35;12.18;;;7.47;;
18206;SDS011;9229;52.354;20.886;2023-05-21T00:34:38;17.70;;;8.10;;
18206;SDS011;9229;52.354;20.886;2023-05-21T00:39:41;8.10;;;7.25;;
18206;SDS011;9229;52.354;20.886;2023-05-21T00:44:43;10.75;;;9.30;;
18206;SDS011;9229;52.354;20.886;2023-05-21T00:49:50;10.70;;;8.95;;
18206;SDS011;9229;52.354;20.886;2023-05-21T00:54:54;17.33;;;9.88;;
18206;SDS011;9229;52.354;20.886;2023-05-21T00:59:56;29.58;;;10.50;;
18206;SDS011;9229;52.354;20.886;2023-05-21T01:04:58;12.68;;;9.68;;
18206;SDS011;9229;52.354;20.886;2023-05-21T01:10:03;10.32;;;7.43;;
18206;SDS011;9229;52.354;20.886;2023-05-21T01:15:07;14.05;;;8.98;;
18206;SDS011;9229;52.354;20.886;2023-05-21T01:20:11;9.43;;;8.45;;
18206;SDS011;9229;52.354;20.886;2023-05-21T01:25:15;12.50;;;8.35;;
18206;SDS011;9229;52.354;20.886;2023-05-21T01:30:17;13.55;;;8.85;;
18206;SDS011;9229;52.354;20.886;2023-05-21T01:35:21;12.07;;;8.45;;
18206;SDS011;9229;52.354;20.886;2023-05-21T01:40:30;9.73;;;7.80;;
18206;SDS011;9229;52.354;20.886;2023-05-21T01:45:39;12.85;;;8.13;;
18206;SDS011;9229;52.354;20.886;2023-05-21T01:50:44;8.40;;;7.30;;
18206;SDS011;9229;52.354;20.886;2023-05-21T01:55:48;11.90;;;6.80;;
18206;SDS011;9229;52.354;20.886;2023-05-21T02:00:50;9.32;;;6.90;;
18206;SDS011;9229;52.354;20.886;2023-05-21T02:05:52;8.95;;;7.10;;
18206;SDS011;9229;52.354;20.886;2023-05-21T02:10:59;10.40;;;7.05;;
18206;SDS011;9229;52.354;20.886;2023-05-21T02:16:01;8.63;;;6.70;;
18206;SDS011;9229;52.354;20.886;2023-05-21T02:21:03;10.88;;;8.10;;
18206;SDS011;9229;52.354;20.886;2023-05-21T02:26:08;10.15;;;8.10;;
18206;SDS011;9229;52.354;20.886;2023-05-21T02:31:10;11.30;;;7.95;;
18206;SDS011;9229;52.354;20.886;2023-05-21T02:36:15;11.88;;;7.63;;
18206;SDS011;9229;52.354;20.886;2023-05-21T02:41:19;10.25;;;8.38;;
18206;SDS011;9229;52.354;20.886;2023-05-21T02:46:22;15.55;;;7.03;;
18206;SDS011;9229;52.354;20.886;2023-05-21T02:51:26;15.77;;;7.78;;
18206;SDS011;9229;52.354;20.886;2023-05-21T02:56:30;12.20;;;7.43;;
18206;SDS011;9229;52.354;20.886;2023-05-21T03:01:32;7.78;;;7.03;;
18206;SDS011;9229;52.354;20.886;2023-05-21T03:06:35;8.00;;;7.20;;
18206;SDS011;9229;52.354;20.886;2023-05-21T03:11:39;10.07;;;7.60;;
18206;SDS011;9229;52.354;20.886;2023-05-21T03:16:42;9.63;;;6.85;;
18206;SDS011;9229;52.354;20.886;2023-05-21T03:21:44;8.70;;;7.65;;
18206;SDS011;9229;52.354;20.886;2023-05-21T03:26:49;9.88;;;6.93;;
18206;SDS011;9229;52.354;20.886;2023-05-21T03:31:54;7.93;;;7.15;;
18206;SDS011;9229;52.354;20.886;2023-05-21T03:36:58;8.57;;;7.45;;
18206;SDS011;9229;52.354;20.886;2023-05-21T03:42:05;10.57;;;7.47;;
18206;SDS011;9229;52.354;20.886;2023-05-21T03:47:21;9.70;;;7.15;;
18206;SDS011;9229;52.354;20.886;2023-05-21T03:52:25;12.20;;;7.40;;
18206;SDS011;9229;52.354;20.886;2023-05-21T03:57:28;8.20;;;6.88;;
18206;SDS011;9229;52.354;20.886;2023-05-21T04:02:31;7.68;;;7.03;;
18206;SDS011;9229;52.354;20.886;2023-05-21T04:07:34;9.13;;;7.40;;
18206;SDS011;9229;52.354;20.886;2023-05-21T04:12:39;6.93;;;6.00;;
18206;SDS011;9229;52.354;20.886;2023-05-21T04:17:42;9.98;;;6.97;;
18206;SDS011;9229;52.354;20.886;2023-05-21T04:22:46;8.05;;;6.30;;
18206;SDS011;9229;52.354;20.886;2023-05-21T04:27:50;9.18;;;6.47;;
18206;SDS011;9229;52.354;20.886;2023-05-21T04:32:55;7.60;;;6.68;;
18206;SDS011;9229;52.354;20.886;2023-05-21T04:37:57;9.32;;;6.75;;
18206;SDS011;9229;52.354;20.886;2023-05-21T04:43:01;6.65;;;6.05;;
18206;SDS011;9229;52.354;20.886;2023-05-21T04:48:04;6.45;;;5.85;;
18206;SDS011;9229;52.354;20.886;2023-05-21T04:53:07;6.65;;;5.60;;
18206;SDS011;9229;52.354;20.886;2023-05-21T04:58:11;8.00;;;5.55;;
18206;SDS011;9229;52.354;20.886;2023-05-21T05:03:18;5.43;;;5.00;;
18206;SDS011;9229;52.354;20.886;2023-05-21T05:08:21;5.82;;;5.20;;
18206;SDS011;9229;52.354;20.886;2023-05-21T05:13:24;5.57;;;4.90;;
18206;SDS011;9229;52.354;20.886;2023-05-21T05:18:26;5.88;;;4.95;;
18206;SDS011;9229;52.354;20.886;2023-05-21T05:23:28;4.88;;;4.53;;
18206;SDS011;9229;52.354;20.886;2023-05-21T05:28:32;5.43;;;4.93;;
18206;SDS011;9229;52.354;20.886;2023-05-21T05:33:35;4.25;;;3.95;;
18206;SDS011;9229;52.354;20.886;2023-05-21T05:38:41;3.85;;;3.60;;
18206;SDS011;9229;52.354;20.886;2023-05-21T05:43:46;3.97;;;3.67;;
18206;SDS011;9229;52.354;20.886;2023-05-21T05:48:49;4.00;;;3.75;;
18206;SDS011;9229;52.354;20.886;2023-05-21T05:53:51;6.40;;;3.65;;
18206;SDS011;9229;52.354;20.886;2023-05-21T05:58:55;4.30;;;4.00;;
18206;SDS011;9229;52.354;20.886;2023-05-21T06:03:58;3.80;;;3.60;;
18206;SDS011;9229;52.354;20.886;2023-05-21T06:09:00;7.18;;;3.58;;
18206;SDS011;9229;52.354;20.886;2023-05-21T06:14:04;3.72;;;3.28;;
18206;SDS011;9229;52.354;20.886;2023-05-21T06:19:06;4.82;;;2.80;;
18206;SDS011;9229;52.354;20.886;2023-05-21T06:24:08;6.32;;;3.10;;
18206;SDS011;9229;52.354;20.886;2023-05-21T06:29:13;4.85;;;3.15;;
18206;SDS011;9229;52.354;20.886;2023-05-21T06:34:19;21.65;;;3.53;;
18206;SDS011;9229;52.354;20.886;2023-05-21T06:39:21;3.40;;;3.00;;
18206;SDS011;9229;52.354;20.886;2023-05-21T06:44:31;3.30;;;3.00;;
18206;SDS011;9229;52.354;20.886;2023-05-21T06:49:43;6.78;;;2.63;;
18206;SDS011;9229;52.354;20.886;2023-05-21T06:54:48;4.80;;;3.75;;
18206;SDS011;9229;52.354;20.886;2023-05-21T07:00:01;5.00;;;2.92;;
18206;SDS011;9229;52.354;20.886;2023-05-21T07:05:09;3.05;;;2.85;;
18206;SDS011;9229;52.354;20.886;2023-05-21T07:10:14;9.30;;;3.45;;
18206;SDS011;9229;52.354;20.886;2023-05-21T07:48:59;288.63;;;14.20;;
18206;SDS011;9229;52.354;20.886;2023-05-21T07:55:05;8.43;;;2.65;;
18206;SDS011;9229;52.354;20.886;2023-05-21T08:13:32;4.75;;;2.22;;
18206;SDS011;9229;52.354;20.886;2023-05-21T08:18:36;2.45;;;2.13;;
18206;SDS011;9229;52.354;20.886;2023-05-21T08:23:39;2.38;;;1.90;;
18206;SDS011;9229;52.354;20.886;2023-05-21T08:28:47;4.32;;;2.30;;
18206;SDS011;9229;52.354;20.886;2023-05-21T08:33:49;3.83;;;2.38;;
18206;SDS011;9229;52.354;20.886;2023-05-21T08:38:59;5.68;;;2.47;;
18206;SDS011;9229;52.354;20.886;2023-05-21T08:44:10;5.13;;;2.20;;
18206;SDS011;9229;52.354;20.886;2023-05-21T08:49:14;9.50;;;2.20;;
18206;SDS011;9229;52.354;20.886;2023-05-21T08:54:19;7.22;;;2.10;;
18206;SDS011;9229;52.354;20.886;2023-05-21T08:59:23;2.33;;;2.10;;
18206;SDS011;9229;52.354;20.886;2023-05-21T09:04:25;13.55;;;2.75;;
18206;SDS011;9229;52.354;20.886;2023-05-21T09:09:31;3.78;;;2.03;;
18206;SDS011;9229;52.354;20.886;2023-05-21T09:14:36;3.67;;;1.95;;
18206;SDS011;9229;52.354;20.886;2023-05-21T09:20:08;3.83;;;2.15;;
18206;SDS011;9229;52.354;20.886;2023-05-21T09:25:15;4.55;;;1.90;;
18206;SDS011;9229;52.354;20.886;2023-05-21T09:30:20;5.63;;;2.35;;
18206;SDS011;9229;52.354;20.886;2023-05-21T09:35:23;9.75;;;2.15;;
18206;SDS011;9229;52.354;20.886;2023-05-21T09:40:45;7.63;;;2.35;;
18206;SDS011;9229;52.354;20.886;2023-05-21T09:45:51;6.95;;;2.15;;
18206;SDS011;9229;52.354;20.886;2023-05-21T09:51:18;4.97;;;2.20;;
18206;SDS011;9229;52.354;20.886;2023-05-21T09:56:26;2.15;;;1.98;;
18206;SDS011;9229;52.354;20.886;2023-05-21T10:02:16;10.48;;;2.00;;
18206;SDS011;9229;52.354;20.886;2023-05-21T10:07:37;5.93;;;2.08;;
18206;SDS011;9229;52.354;20.886;2023-05-21T10:13:13;9.95;;;2.00;;
18206;SDS011;9229;52.354;20.886;2023-05-21T10:18:48;1.95;;;1.80;;
18206;SDS011;9229;52.354;20.886;2023-05-21T10:24:09;8.25;;;2.05;;
18206;SDS011;9229;52.354;20.886;2023-05-21T10:30:22;1.80;;;1.80;;
18206;SDS011;9229;52.354;20.886;2023-05-21T10:42:50;1.98;;;1.80;;
18206;SDS011;9229;52.354;20.886;2023-05-21T10:48:43;13.23;;;2.30;;
18206;SDS011;9229;52.354;20.886;2023-05-21T10:54:42;10.18;;;2.35;;
18206;SDS011;9229;52.354;20.886;2023-05-21T11:01:30;23.52;;;2.53;;
18206;SDS011;9229;52.354;20.886;2023-05-21T11:06:59;3.60;;;1.90;;
18206;SDS011;9229;52.354;20.886;2023-05-21T11:12:29;1.88;;;1.80;;
18206;SDS011;9229;52.354;20.886;2023-05-21T11:25:19;7.55;;;2.22;;
18206;SDS011;9229;52.354;20.886;2023-05-21T11:30:38;4.00;;;2.00;;
18206;SDS011;9229;52.354;20.886;2023-05-21T11:42:31;6.68;;;2.13;;
18206;SDS011;9229;52.354;20.886;2023-05-21T11:47:34;4.55;;;1.95;;
18206;SDS011;9229;52.354;20.886;2023-05-21T11:52:51;2.58;;;2.05;;
18206;SDS011;9229;52.354;20.886;2023-05-21T11:58:12;5.95;;;2.15;;
18206;SDS011;9229;52.354;20.886;2023-05-21T12:03:21;4.00;;;1.98;;
18206;SDS011;9229;52.354;20.886;2023-05-21T12:08:26;1.90;;;1.80;;
18206;SDS011;9229;52.354;20.886;2023-05-21T12:13:31;2.08;;;1.77;;
18206;SDS011;9229;52.354;20.886;2023-05-21T12:18:33;3.17;;;2.00;;
18206;SDS011;9229;52.354;20.886;2023-05-21T12:23:54;5.13;;;2.45;;
18206;SDS011;9229;52.354;20.886;2023-05-21T12:29:06;9.32;;;2.30;;
18206;SDS011;9229;52.354;20.886;2023-05-21T12:34:11;3.75;;;1.67;;
18206;SDS011;9229;52.354;20.886;2023-05-21T12:51:37;3.72;;;1.50;;
18206;SDS011;9229;52.354;20.886;2023-05-21T12:56:53;3.47;;;1.90;;
18206;SDS011;9229;52.354;20.886;2023-05-21T13:02:47;5.38;;;2.03;;
18206;SDS011;9229;52.354;20.886;2023-05-21T13:08:10;2.47;;;2.03;;
18206;SDS011;9229;52.354;20.886;2023-05-21T13:13:23;2.28;;;1.80;;
18206;SDS011;9229;52.354;20.886;2023-05-21T13:18:32;3.63;;;1.60;;
18206;SDS011;9229;52.354;20.886;2023-05-21T13:23:41;8.85;;;2.20;;
18206;SDS011;9229;52.354;20.886;2023-05-21T13:28:43;4.68;;;2.10;;
18206;SDS011;9229;52.354;20.886;2023-05-21T13:33:53;4.28;;;1.75;;
18206;SDS011;9229;52.354;20.886;2023-05-21T13:39:03;8.85;;;1.88;;
18206;SDS011;9229;52.354;20.886;2023-05-21T13:44:16;2.20;;;2.05;;
18206;SDS011;9229;52.354;20.886;2023-05-21T13:49:18;4.00;;;1.90;;
18206;SDS011;9229;52.354;20.886;2023-05-21T14:00:08;8.52;;;2.45;;
18206;SDS011;9229;52.354;20.886;2023-05-21T14:05:19;2.65;;;1.80;;
18206;SDS011;9229;52.354;20.886;2023-05-21T14:10:35;6.07;;;2.22;;
18206;SDS011;9229;52.354;20.886;2023-05-21T14:15:37;17.75;;;2.80;;
18206;SDS011;9229;52.354;20.886;2023-05-21T14:20:47;6.13;;;2.17;;
18206;SDS011;9229;52.354;20.886;2023-05-21T14:26:16;2.00;;;1.90;;
18206;SDS011;9229;52.354;20.886;2023-05-21T14:31:18;5.32;;;1.98;;
18206;SDS011;9229;52.354;20.886;2023-05-21T14:36:20;2.10;;;2.00;;
18206;SDS011;9229;52.354;20.886;2023-05-21T14:41:24;3.35;;;1.90;;
18206;SDS011;9229;52.354;20.886;2023-05-21T14:46:26;5.93;;;2.25;;
18206;SDS011;9229;52.354;20.886;2023-05-21T14:51:29;2.92;;;2.45;;
18206;SDS011;9229;52.354;20.886;2023-05-21T14:56:32;11.30;;;2.20;;
18206;SDS011;9229;52.354;20.886;2023-05-21T15:01:34;2.30;;;2.20;;
18206;SDS011;9229;52.354;20.886;2023-05-21T15:06:36;3.08;;;2.22;;
18206;SDS011;9229;52.354;20.886;2023-05-21T15:11:40;2.25;;;2.05;;
18206;SDS011;9229;52.354;20.886;2023-05-21T15:16:43;5.32;;;2.40;;
18206;SDS011;9229;52.354;20.886;2023-05-21T15:21:44;2.95;;;2.28;;
18206;SDS011;9229;52.354;20.886;2023-05-21T15:26:49;5.65;;;2.55;;
18206;SDS011;9229;52.354;20.886;2023-05-21T15:31:51;2.22;;;2.13;;
18206;SDS011;9229;52.354;20.886;2023-05-21T15:36:53;2.92;;;2.13;;
18206;SDS011;9229;52.354;20.886;2023-05-21T15:41:58;2.47;;;2.28;;
18206;SDS011;9229;52.354;20.886;2023-05-21T15:47:01;7.13;;;2.45;;
18206;SDS011;9229;52.354;20.886;2023-05-21T15:52:03;3.38;;;2.13;;
18206;SDS011;9229;52.354;20.886;2023-05-21T15:57:07;2.10;;;2.00;;
18206;SDS011;9229;52.354;20.886;2023-05-21T16:02:09;2.97;;;2.10;;
18206;SDS011;9229;52.354;20.886;2023-05-21T16:07:11;3.40;;;2.28;;
18206;SDS011;9229;52.354;20.886;2023-05-21T16:12:15;9.45;;;2.80;;
18206;SDS011;9229;52.354;20.886;2023-05-21T16:17:17;3.70;;;2.85;;
18206;SDS011;9229;52.354;20.886;2023-05-21T16:22:22;6.00;;;2.40;;
18206;SDS011;9229;52.354;20.886;2023-05-21T16:27:36;5.65;;;2.58;;
18206;SDS011;9229;52.354;20.886;2023-05-21T16:32:38;2.33;;;2.10;;
18206;SDS011;9229;52.354;20.886;2023-05-21T16:37:43;3.42;;;2.30;;
18206;SDS011;9229;52.354;20.886;2023-05-21T16:42:49;12.18;;;2.38;;
18206;SDS011;9229;52.354;20.886;2023-05-21T16:47:55;11.50;;;2.15;;
18206;SDS011;9229;52.354;20.886;2023-05-21T16:52:57;2.95;;;2.08;;
18206;SDS011;9229;52.354;20.886;2023-05-21T16:58:05;4.30;;;2.17;;
18206;SDS011;9229;52.354;20.886;2023-05-21T17:03:08;2.92;;;2.60;;
18206;SDS011;9229;52.354;20.886;2023-05-21T17:08:10;8.07;;;2.15;;
18206;SDS011;9229;52.354;20.886;2023-05-21T17:13:14;2.05;;;1.95;;
18206;SDS011;9229;52.354;20.886;2023-05-21T17:18:16;2.55;;;2.22;;
18206;SDS011;9229;52.354;20.886;2023-05-21T17:23:18;3.35;;;2.42;;
18206;SDS011;9229;52.354;20.886;2023-05-21T17:28:21;9.07;;;2.50;;
18206;SDS011;9229;52.354;20.886;2023-05-21T17:33:23;5.28;;;2.50;;
18206;SDS011;9229;52.354;20.886;2023-05-21T17:38:29;6.50;;;2.17;;
18206;SDS011;9229;52.354;20.886;2023-05-21T17:43:33;9.23;;;2.88;;
18206;SDS011;9229;52.354;20.886;2023-05-21T17:48:37;7.40;;;2.67;;
18206;SDS011;9229;52.354;20.886;2023-05-21T17:53:39;3.55;;;2.60;;
18206;SDS011;9229;52.354;20.886;2023-05-21T17:58:43;7.57;;;2.90;;
18206;SDS011;9229;52.354;20.886;2023-05-21T18:03:45;12.10;;;3.15;;
18206;SDS011;9229;52.354;20.886;2023-05-21T18:08:47;47.65;;;4.75;;
18206;SDS011;9229;52.354;20.886;2023-05-21T18:13:50;48.83;;;5.18;;
18206;SDS011;9229;52.354;20.886;2023-05-21T18:18:54;12.43;;;3.17;;
18206;SDS011;9229;52.354;20.886;2023-05-21T18:23:57;67.63;;;5.40;;
18206;SDS011;9229;52.354;20.886;2023-05-21T18:29:03;43.55;;;4.88;;
18206;SDS011;9229;52.354;20.886;2023-05-21T18:34:05;16.33;;;3.65;;
18206;SDS011;9229;52.354;20.886;2023-05-21T18:39:10;33.92;;;3.92;;
18206;SDS011;9229;52.354;20.886;2023-05-21T18:44:14;32.70;;;3.92;;
18206;SDS011;9229;52.354;20.886;2023-05-21T18:49:16;9.27;;;3.33;;
18206;SDS011;9229;52.354;20.886;2023-05-21T18:54:20;15.25;;;3.92;;
18206;SDS011;9229;52.354;20.886;2023-05-21T19:05:26;12.68;;;4.43;;
18206;SDS011;9229;52.354;20.886;2023-05-21T19:10:50;17.83;;;4.40;;
18206;SDS011;9229;52.354;20.886;2023-05-21T19:15:58;8.60;;;4.38;;
18206;SDS011;9229;52.354;20.886;2023-05-21T19:21:23;12.23;;;4.18;;
18206;SDS011;9229;52.354;20.886;2023-05-21T19:26:34;5.28;;;3.35;;
18206;SDS011;9229;52.354;20.886;2023-05-21T19:37:32;6.78;;;4.03;;
18206;SDS011;9229;52.354;20.886;2023-05-21T19:42:35;33.65;;;5.20;;
18206;SDS011;9229;52.354;20.886;2023-05-21T19:47:39;12.55;;;4.72;;
18206;SDS011;9229;52.354;20.886;2023-05-21T19:52:52;7.13;;;4.22;;
18206;SDS011;9229;52.354;20.886;2023-05-21T19:57:54;9.68;;;4.38;;
18206;SDS011;9229;52.354;20.886;2023-05-21T20:02:58;5.10;;;3.97;;
18206;SDS011;9229;52.354;20.886;2023-05-21T20:08:02;6.47;;;4.47;;
18206;SDS011;9229;52.354;20.886;2023-05-21T20:13:12;4.45;;;4.15;;
18206;SDS011;9229;52.354;20.886;2023-05-21T20:18:15;11.18;;;4.63;;
18206;SDS011;9229;52.354;20.886;2023-05-21T20:23:19;16.75;;;4.80;;
18206;SDS011;9229;52.354;20.886;2023-05-21T20:28:21;9.05;;;4.57;;
18206;SDS011;9229;52.354;20.886;2023-05-21T20:33:28;10.50;;;4.90;;
18206;SDS011;9229;52.354;20.886;2023-05-21T20:38:31;5.18;;;4.78;;
18206;SDS011;9229;52.354;20.886;2023-05-21T20:43:36;9.45;;;4.68;;
18206;SDS011;9229;52.354;20.886;2023-05-21T20:48:39;10.73;;;5.65;;
18206;SDS011;9229;52.354;20.886;2023-05-21T20:53:42;11.10;;;5.53;;
18206;SDS011;9229;52.354;20.886;2023-05-21T20:58:46;12.20;;;6.80;;
18206;SDS011;9229;52.354;20.886;2023-05-21T21:03:51;17.65;;;6.03;;
18206;SDS011;9229;52.354;20.886;2023-05-21T21:08:53;14.13;;;6.57;;
18206;SDS011;9229;52.354;20.886;2023-05-21T21:13:56;8.23;;;6.20;;
18206;SDS011;9229;52.354;20.886;2023-05-21T21:18:59;9.85;;;6.22;;
18206;SDS011;9229;52.354;20.886;2023-05-21T21:24:01;9.35;;;6.43;;
18206;SDS011;9229;52.354;20.886;2023-05-21T21:29:03;13.75;;;6.93;;
18206;SDS011;9229;52.354;20.886;2023-05-21T21:34:07;16.00;;;7.22;;
18206;SDS011;9229;52.354;20.886;2023-05-21T21:39:09;12.73;;;6.53;;
18206;SDS011;9229;52.354;20.886;2023-05-21T21:44:12;15.50;;;6.05;;
18206;SDS011;9229;52.354;20.886;2023-05-21T21:49:16;25.30;;;6.95;;
18206;SDS011;9229;52.354;20.886;2023-05-21T21:54:20;20.27;;;7.75;;
18206;SDS011;9229;52.354;20.886;2023-05-21T21:59:23;12.57;;;5.80;;
18206;SDS011;9229;52.354;20.886;2023-05-21T22:04:28;8.48;;;6.80;;
18206;SDS011;9229;52.354;20.886;2023-05-21T22:09:30;9.27;;;6.25;;
18206;SDS011;9229;52.354;20.886;2023-05-21T22:14:32;8.50;;;7.30;;
18206;SDS011;9229;52.354;20.886;2023-05-21T22:19:36;7.90;;;6.68;;
18206;SDS011;9229;52.354;20.886;2023-05-21T22:24:38;12.32;;;6.35;;
18206;SDS011;9229;52.354;20.886;2023-05-21T22:29:40;128.10;;;14.38;;
18206;SDS011;9229;52.354;20.886;2023-05-21T22:34:44;73.25;;;10.80;;
18206;SDS011;9229;52.354;20.886;2023-05-21T22:39:46;29.30;;;8.18;;
18206;SDS011;9229;52.354;20.886;2023-05-21T22:44:48;22.10;;;7.40;;
18206;SDS011;9229;52.354;20.886;2023-05-21T22:49:52;30.80;;;7.57;;
18206;SDS011;9229;52.354;20.886;2023-05-21T22:54:57;19.73;;;8.00;;
18206;SDS011;9229;52.354;20.886;2023-05-21T23:00:00;15.00;;;6.63;;
18206;SDS011;9229;52.354;20.886;2023-05-21T23:05:04;10.85;;;7.00;;
18206;SDS011;9229;52.354;20.886;2023-05-21T23:10:08;9.88;;;7.38;;
18206;SDS011;9229;52.354;20.886;2023-05-21T23:15:11;9.63;;;6.72;;
18206;SDS011;9229;52.354;20.886;2023-05-21T23:20:17;13.30;;;6.45;;
18206;SDS011;9229;52.354;20.886;2023-05-21T23:25:20;16.05;;;7.00;;
18206;SDS011;9229;52.354;20.886;2023-05-21T23:30:22;18.88;;;7.57;;
18206;SDS011;9229;52.354;20.886;2023-05-21T23:35:27;20.58;;;7.50;;
18206;SDS011;9229;52.354;20.886;2023-05-21T23:40:30;23.75;;;6.95;;
18206;SDS011;9229;52.354;20.886;2023-05-21T23:45:31;15.35;;;7.10;;
18206;SDS011;9229;52.354;20.886;2023-05-21T23:50:38;9.20;;;6.72;;
18206;SDS011;9229;52.354;20.886;2023-05-21T23:55:41;8.07;;;6.85;;
